Observation data for Wolfforth on 08/14/2019      Previous  Date  Next       Current Mesonet Observations  Soil Data  Daily Summary Page  Observations in Plain Language
KWOS 140500Z 08007KT 26/17 A3014 RMK A01 T02630172  RH  060%=      5-min Rain = 0
KWOS 140505Z 08009KT 26/17 A3013 RMK A01 T02630172  RH  060%=      5-min Rain = 0
KWOS 140510Z 07008KT 26/17 A3013 RMK A01 T02630173  RH  061%=      5-min Rain = 0
KWOS 140515Z 07008KT 26/17 A3014 RMK A01 T02620173  RH  061%=      5-min Rain = 0
KWOS 140520Z 07008KT 26/17 A3014 RMK A01 T02610173  RH  061%=      5-min Rain = 0
KWOS 140525Z 07007KT 26/17 A3014 RMK A01 T02590173  RH  062%=      5-min Rain = 0
KWOS 140530Z 07007KT 26/17 A3014 RMK A01 T02580173  RH  062%=      5-min Rain = 0
KWOS 140535Z 07007KT 26/17 A3014 RMK A01 T02570173  RH  063%=      5-min Rain = 0
KWOS 140540Z 07008KT 26/17 A3014 RMK A01 T02560173  RH  063%=      5-min Rain = 0
KWOS 140545Z 07008KT 26/17 A3013 RMK A01 T02560173  RH  063%=      5-min Rain = 0
KWOS 140550Z 07008KT 26/17 A3013 RMK A01 T02560173  RH  063%=      5-min Rain = 0
KWOS 140555Z 07008KT 26/17 A3013 RMK A01 T02560174  RH  063%=      5-min Rain = 0
KWOS 140600Z 06008KT 26/17 A3013 RMK A01 T02560173  RH  064%=      5-min Rain = 0
KWOS 140605Z 10008KT 25/17 A3013 RMK A01 T02540173  RH  064%=      5-min Rain = 0
KWOS 140610Z 11007KT 25/17 A3013 RMK A01 T02520173  RH  065%=      5-min Rain = 0
KWOS 140615Z 10007KT 25/17 A3013 RMK A01 T02500173  RH  066%=      5-min Rain = 0
KWOS 140620Z 09006KT 25/17 A3013 RMK A01 T02490173  RH  066%=      5-min Rain = 0
KWOS 140625Z 08006KT 25/17 A3013 RMK A01 T02470172  RH  067%=      5-min Rain = 0
KWOS 140630Z 07005KT 25/17 A3014 RMK A01 T02460173  RH  067%=      5-min Rain = 0
KWOS 140635Z 06006KT 24/17 A3014 RMK A01 T02430172  RH  068%=      5-min Rain = 0
KWOS 140640Z 06007KT 24/17 A3014 RMK A01 T02430172  RH  068%=      5-min Rain = 0
KWOS 140645Z 07007KT 24/17 A3014 RMK A01 T02430172  RH  068%=      5-min Rain = 0
KWOS 140650Z 07007KT 24/17 A3014 RMK A01 T02430172  RH  068%=      5-min Rain = 0
KWOS 140655Z 06007KT 24/17 A3014 RMK A01 T02430172  RH  068%=      5-min Rain = 0
KWOS 140700Z 06007KT 24/17 A3014 RMK A01 T02420172  RH  068%=      5-min Rain = 0
KWOS 140705Z 07007KT 24/17 A3014 RMK A01 T02420172  RH  068%=      5-min Rain = 0
KWOS 140710Z 07008KT 24/17 A3014 RMK A01 T02420172  RH  068%=      5-min Rain = 0
KWOS 140715Z 06009KT 24/17 A3014 RMK A01 T02430172  RH  068%=      5-min Rain = 0
KWOS 140720Z 07008KT 24/17 A3014 RMK A01 T02420172  RH  068%=      5-min Rain = 0
KWOS 140725Z 07008KT 24/17 A3014 RMK A01 T02420172  RH  069%=      5-min Rain = 0
KWOS 140730Z 07009KT 24/17 A3015 RMK A01 T02410172  RH  069%=      5-min Rain = 0
KWOS 140735Z 07009KT 24/17 A3015 RMK A01 T02410173  RH  069%=      5-min Rain = 0
KWOS 140740Z 07009KT 24/17 A3015 RMK A01 T02410173  RH  069%=      5-min Rain = 0
KWOS 140745Z 07010KT 24/17 A3015 RMK A01 T02420173  RH  069%=      5-min Rain = 0
KWOS 140750Z 07010KT 24/17 A3015 RMK A01 T02420174  RH  069%=      5-min Rain = 0
KWOS 140755Z 08010KT 24/18 A3014 RMK A01 T02420175  RH  069%=      5-min Rain = 0
KWOS 140800Z 08010KT 24/18 A3015 RMK A01 T02420175  RH  070%=      5-min Rain = 0
KWOS 140805Z 07009KT 24/18 A3015 RMK A01 T02410175  RH  070%=      5-min Rain = 0
KWOS 140810Z 07009KT 24/18 A3015 RMK A01 T02400175  RH  071%=      5-min Rain = 0
KWOS 140815Z 07009KT 24/18 A3015 RMK A01 T02390175  RH  071%=      5-min Rain = 0
KWOS 140820Z 06010KT 24/18 A3015 RMK A01 T02390175  RH  071%=      5-min Rain = 0
KWOS 140825Z 06010KT 24/18 A3015 RMK A01 T02380175  RH  071%=      5-min Rain = 0
KWOS 140830Z 06010KT 24/18 A3015 RMK A01 T02370175  RH  072%=      5-min Rain = 0
KWOS 140835Z 05010KT 24/18 A3015 RMK A01 T02370175  RH  072%=      5-min Rain = 0
KWOS 140840Z 05008KT 24/17 A3015 RMK A01 T02360174  RH  072%=      5-min Rain = 0
KWOS 140845Z 06008KT 23/17 A3015 RMK A01 T02340174  RH  072%=      5-min Rain = 0
KWOS 140850Z 06008KT 23/17 A3015 RMK A01 T02340174  RH  072%=      5-min Rain = 0
KWOS 140855Z 06008KT 23/17 A3014 RMK A01 T02340174  RH  073%=      5-min Rain = 0
KWOS 140900Z 06009KT 23/18 A3014 RMK A01 T02340175  RH  073%=      5-min Rain = 0
KWOS 140905Z 06008KT 23/18 A3014 RMK A01 T02340175  RH  073%=      5-min Rain = 0
KWOS 140910Z 06008KT 23/17 A3014 RMK A01 T02330174  RH  073%=      5-min Rain = 0
KWOS 140915Z 06008KT 23/17 A3014 RMK A01 T02320174  RH  074%=      5-min Rain = 0
KWOS 140920Z 07007KT 23/17 A3014 RMK A01 T02310174  RH  074%=      5-min Rain = 0
KWOS 140925Z 07007KT 23/17 A3013 RMK A01 T02300174  RH  074%=      5-min Rain = 0
KWOS 140930Z 06007KT 23/17 A3014 RMK A01 T02290174  RH  075%=      5-min Rain = 0
KWOS 140935Z 05007KT 23/17 A3014 RMK A01 T02290174  RH  075%=      5-min Rain = 0
KWOS 140940Z 06007KT 23/17 A3013 RMK A01 T02280174  RH  075%=      5-min Rain = 0
KWOS 140945Z 05008KT 23/17 A3014 RMK A01 T02280174  RH  075%=      5-min Rain = 0
KWOS 140950Z 05008KT 23/17 A3014 RMK A01 T02290174  RH  075%=      5-min Rain = 0
KWOS 140955Z 05008KT 23/17 A3014 RMK A01 T02300174  RH  075%=      5-min Rain = 0
KWOS 141000Z 05008KT 23/18 A3014 RMK A01 T02300175  RH  075%=      5-min Rain = 0
KWOS 141005Z 06009KT 23/18 A3014 RMK A01 T02320175  RH  074%=      5-min Rain = 0
KWOS 141010Z 05009G14KT 23/18 A3014 RMK A01 T02330175  RH  073%=      5-min Rain = 0
KWOS 141015Z 05009KT 24/18 A3015 RMK A01 T02350175  RH  073%=      5-min Rain = 0
KWOS 141020Z 05009KT 24/18 A3015 RMK A01 T02350175  RH  072%=      5-min Rain = 0
KWOS 141025Z 05010KT 24/18 A3015 RMK A01 T02360175  RH  072%=      5-min Rain = 0
KWOS 141030Z 05011KT 24/17 A3015 RMK A01 T02360174  RH  072%=      5-min Rain = 0
KWOS 141035Z 05011KT 24/17 A3015 RMK A01 T02370174  RH  072%=      5-min Rain = 0
KWOS 141040Z 05011KT 24/17 A3015 RMK A01 T02370174  RH  072%=      5-min Rain = 0
KWOS 141045Z 05011G16KT 24/17 A3016 RMK A01 T02360174  RH  072%=      5-min Rain = 0
KWOS 141050Z 05010KT 24/17 A3016 RMK A01 T02360173  RH  071%=      5-min Rain = 0
KWOS 141055Z 05012G18KT 24/17 A3016 RMK A01 T02370173  RH  071%=      5-min Rain = 0
KWOS 141100Z 04014KT 24/17 A3016 RMK A01 T02370173  RH  071%=      5-min Rain = 0
KWOS 141105Z 04017KT 24/17 A3016 RMK A01 T02350173  RH  072%=      5-min Rain = 0
KWOS 141110Z 03013KT 23/17 A3017 RMK A01 T02330173  RH  072%=      5-min Rain = 0
KWOS 141115Z 04015G21KT 23/17 A3017 RMK A01 T02320171  RH  072%=      5-min Rain = 0
KWOS 141120Z 05015G21KT 23/17 A3018 RMK A01 T02300170  RH  072%=      5-min Rain = 0
KWOS 141125Z 05016G21KT 23/17 A3018 RMK A01 T02280169  RH  073%=      5-min Rain = 0
KWOS 141130Z 04013G18KT 23/17 A3018 RMK A01 T02260170  RH  074%=      5-min Rain = 0
KWOS 141135Z 04013KT 22/17 A3018 RMK A01 T02240171  RH  076%=      5-min Rain = 0
KWOS 141140Z 04014KT 22/17 A3018 RMK A01 T02220172  RH  077%=      5-min Rain = 0
KWOS 141145Z 04013G18KT 22/17 A3018 RMK A01 T02210172  RH  078%=      5-min Rain = 0
KWOS 141150Z 04013G19KT 22/17 A3019 RMK A01 T02190171  RH  078%=      5-min Rain = 0
KWOS 141155Z 04013G19KT 22/17 A3019 RMK A01 T02180170  RH  078%=      5-min Rain = 0
KWOS 141200Z 05013KT 22/17 A3019 RMK A01 T02180170  RH  078%=      5-min Rain = 0
KWOS 141205Z 05013G18KT 22/17 A302 RMK A01 T02180168  RH  077%=      5-min Rain = 0
KWOS 141210Z 04012KT 22/17 A302 RMK A01 T02180167  RH  076%=      5-min Rain = 0
KWOS 141215Z 04013KT 22/16 A302 RMK A01 T02170164  RH  076%=      5-min Rain = 0
KWOS 141220Z 04014G19KT 22/16 A302 RMK A01 T02160162  RH  075%=      5-min Rain = 0
KWOS 141225Z 04014KT 21/16 A302 RMK A01 T02140157  RH  073%=      5-min Rain = 0
KWOS 141230Z 04014G19KT 21/15 A302 RMK A01 T02120154  RH  073%=      5-min Rain = 0
KWOS 141235Z 04017G23KT 21/15 A302 RMK A01 T02110152  RH  072%=      5-min Rain = 0
KWOS 141240Z 04016G22KT 21/15 A302 RMK A01 T02100151  RH  072%=      5-min Rain = 0
KWOS 141245Z 03014KT 21/15 A3021 RMK A01 T02090151  RH  073%=      5-min Rain = 0
KWOS 141250Z 03014G20KT 21/15 A3021 RMK A01 T02080151  RH  073%=      5-min Rain = 0
KWOS 141255Z 03016KT 21/15 A3022 RMK A01 T02070150  RH  073%=      5-min Rain = 0
KWOS 141300Z 03015G22KT 21/15 A3022 RMK A01 T02060149  RH  073%=      5-min Rain = 0
KWOS 141305Z 03015G20KT 21/15 A3022 RMK A01 T02060149  RH  073%=      5-min Rain = 0
KWOS 141310Z 04015G20KT 21/15 A3022 RMK A01 T02060149  RH  073%=      5-min Rain = 0
KWOS 141315Z 03016KT 21/15 A3022 RMK A01 T02070149  RH  072%=      5-min Rain = 0
KWOS 141320Z 03016G22KT 21/15 A3022 RMK A01 T02080149  RH  072%=      5-min Rain = 0
KWOS 141325Z 03015G22KT 21/15 A3023 RMK A01 T02090149  RH  072%=      5-min Rain = 0
KWOS 141330Z 03016G22KT 21/15 A3023 RMK A01 T02110150  RH  071%=      5-min Rain = 0
KWOS 141335Z 03013G19KT 21/15 A3023 RMK A01 T02130151  RH  071%=      5-min Rain = 0
KWOS 141340Z 03012G17KT 22/15 A3024 RMK A01 T02160152  RH  070%=      5-min Rain = 0
KWOS 141345Z 02013G18KT 22/15 A3024 RMK A01 T02150152  RH  070%=      5-min Rain = 0
KWOS 141350Z 03011G17KT 22/15 A3024 RMK A01 T02150153  RH  071%=      5-min Rain = 0
KWOS 141355Z 03011KT 22/15 A3024 RMK A01 T02180153  RH  070%=      5-min Rain = 0
KWOS 141400Z 04009G15KT 22/15 A3025 RMK A01 T02210154  RH  069%=      5-min Rain = 0
KWOS 141405Z 03010KT 22/16 A3025 RMK A01 T02240155  RH  068%=      5-min Rain = 0
KWOS 141410Z 04012KT 23/16 A3025 RMK A01 T02290156  RH  067%=      5-min Rain = 0
KWOS 141415Z 04012KT 23/16 A3025 RMK A01 T02300156  RH  066%=      5-min Rain = 0
KWOS 141420Z 03010G15KT 23/16 A3026 RMK A01 T02330158  RH  066%=      5-min Rain = 0
KWOS 141425Z 03010KT 24/16 A3026 RMK A01 T02360159  RH  065%=      5-min Rain = 0
KWOS 141430Z 04010KT 24/16 A3026 RMK A01 T02380158  RH  064%=      5-min Rain = 0
KWOS 141435Z 05009G14KT 24/16 A3025 RMK A01 T02420159  RH  063%=      5-min Rain = 0
KWOS 141440Z 05013KT 24/16 A3025 RMK A01 T02430158  RH  062%=      5-min Rain = 0
KWOS 141445Z 04011KT 25/16 A3025 RMK A01 T02470161  RH  062%=      5-min Rain = 0
KWOS 141450Z 05012KT 25/16 A3025 RMK A01 T02460160  RH  062%=      5-min Rain = 0
KWOS 141455Z 04012G17KT 25/16 A3025 RMK A01 T02480162  RH  061%=      5-min Rain = 0
KWOS 141500Z 03014KT 25/16 A3025 RMK A01 T02470160  RH  061%=      5-min Rain = 0
KWOS 141505Z 02014KT 25/16 A3026 RMK A01 T02450161  RH  062%=      5-min Rain = 0
KWOS 141510Z 03015KT 25/16 A3026 RMK A01 T02450160  RH  062%=      5-min Rain = 0
KWOS 141515Z 03012G17KT 25/16 A3026 RMK A01 T02480164  RH  062%=      5-min Rain = 0
KWOS 141520Z 03012G17KT 25/17 A3025 RMK A01 T02530165  RH  061%=      5-min Rain = 0
KWOS 141525Z 02013KT 26/17 A3025 RMK A01 T02550165  RH  060%=      5-min Rain = 0
KWOS 141530Z 02010KT 26/17 A3025 RMK A01 T02570167  RH  060%=      5-min Rain = 0
KWOS 141535Z 02011KT 26/17 A3025 RMK A01 T02580166  RH  059%=      5-min Rain = 0
KWOS 141540Z 03012KT 26/16 A3024 RMK A01 T02600164  RH  058%=      5-min Rain = 0
KWOS 141545Z 02011KT 26/17 A3024 RMK A01 T02630168  RH  059%=      5-min Rain = 0
KWOS 141550Z 02012KT 26/17 A3024 RMK A01 T02600165  RH  058%=      5-min Rain = 0
KWOS 141555Z 02013KT 26/16 A3025 RMK A01 T02590163  RH  058%=      5-min Rain = 0
KWOS 141600Z 01010KT 26/17 A3025 RMK A01 T02600165  RH  058%=      5-min Rain = 0
KWOS 141605Z 01011KT 26/16 A3024 RMK A01 T02640164  RH  057%=      5-min Rain = 0
KWOS 141610Z 03012KT 27/16 A3024 RMK A01 T02670160  RH  054%=      5-min Rain = 0
KWOS 141615Z 03011G16KT 27/16 A3024 RMK A01 T02720160  RH  053%=      5-min Rain = 0
KWOS 141620Z 03010G16KT 27/16 A3024 RMK A01 T02740160  RH  052%=      5-min Rain = 0
KWOS 141625Z 04010KT 28/16 A3023 RMK A01 T02750156  RH  050%=      5-min Rain = 0
KWOS 141630Z 03011KT 28/15 A3023 RMK A01 T02800154  RH  048%=      5-min Rain = 0
KWOS 141635Z 05012G20KT 29/15 A3023 RMK A01 T02850151  RH  046%=      5-min Rain = 0
KWOS 141640Z 04011G16KT 28/15 A3022 RMK A01 T02830148  RH  046%=      5-min Rain = 0
KWOS 141645Z 05011KT 29/15 A3022 RMK A01 T02870148  RH  045%=      5-min Rain = 0
KWOS 141650Z 06012KT 29/14 A3021 RMK A01 T02940143  RH  042%=      5-min Rain = 0
KWOS 141655Z 07010KT 30/14 A3021 RMK A01 T02970143  RH  041%=      5-min Rain = 0
KWOS 141700Z 07012G17KT 30/14 A3021 RMK A01 T03010138  RH  038%=      5-min Rain = 0
KWOS 141705Z 07011KT 30/14 A3021 RMK A01 T02990137  RH  039%=      5-min Rain = 0
KWOS 141710Z 08012G17KT 31/13 A302 RMK A01 T03070133  RH  036%=      5-min Rain = 0
KWOS 141715Z 08013KT 31/13 A302 RMK A01 T03070133  RH  036%=      5-min Rain = 0
KWOS 141720Z 08014KT 31/13 A302 RMK A01 T03080130  RH  035%=      5-min Rain = 0
KWOS 141725Z 08015KT 31/13 A3019 RMK A01 T03120133  RH  035%=      5-min Rain = 0
KWOS 141730Z 08014G19KT 31/13 A3019 RMK A01 T03140132  RH  034%=      5-min Rain = 0
KWOS 141735Z 07014G19KT 32/13 A3019 RMK A01 T03160127  RH  033%=      5-min Rain = 0
KWOS 141740Z 08014G19KT 31/13 A3019 RMK A01 T03140130  RH  034%=      5-min Rain = 0
KWOS 141745Z 09014G19KT 32/13 A3019 RMK A01 T03150129  RH  033%=      5-min Rain = 0
KWOS 141750Z 08013G18KT 32/13 A3019 RMK A01 T03190130  RH  033%=      5-min Rain = 0
KWOS 141755Z 08014G19KT 32/13 A3019 RMK A01 T03200125  RH  032%=      5-min Rain = 0
KWOS 141800Z 08014KT 32/13 A3019 RMK A01 T03180129  RH  033%=      5-min Rain = 0
KWOS 141805Z 07013G20KT 32/13 A3019 RMK A01 T03200133  RH  033%=      5-min Rain = 0
KWOS 141810Z 08013G19KT 33/13 A3019 RMK A01 T03250125  RH  031%=      5-min Rain = 0
KWOS 141815Z 08014G19KT 32/13 A3019 RMK A01 T03220127  RH  032%=      5-min Rain = 0
KWOS 141820Z 08013G18KT 32/12 A3019 RMK A01 T03240118  RH  030%=      5-min Rain = 0
KWOS 141825Z 10011KT 33/13 A3018 RMK A01 T03310129  RH  031%=      5-min Rain = 0
KWOS 141830Z 10011G18KT 33/13 A3018 RMK A01 T03280128  RH  031%=      5-min Rain = 0
KWOS 141835Z 09013G18KT 33/12 A3018 RMK A01 T03300123  RH  030%=      5-min Rain = 0
KWOS 141840Z 08012G17KT 33/12 A3018 RMK A01 T03300123  RH  030%=      5-min Rain = 0
KWOS 141845Z 07011G18KT 33/12 A3018 RMK A01 T03310119  RH  029%=      5-min Rain = 0
KWOS 141850Z 06012G17KT 33/12 A3018 RMK A01 T03330123  RH  029%=      5-min Rain = 0
KWOS 141855Z 05012G18KT 33/12 A3018 RMK A01 T03340117  RH  028%=      5-min Rain = 0
KWOS 141900Z 05013G18KT 33/12 A3018 RMK A01 T03330115  RH  027%=      5-min Rain = 0
KWOS 141905Z 07015G20KT 33/11 A3018 RMK A01 T03340109  RH  026%=      5-min Rain = 0
KWOS 141910Z 07012KT 33/11 A3018 RMK A01 T03320109  RH  026%=      5-min Rain = 0
KWOS 141915Z 06013G18KT 34/11 A3018 RMK A01 T03380113  RH  026%=      5-min Rain = 0
KWOS 141920Z 06013KT 34/11 A3019 RMK A01 T03360107  RH  026%=      5-min Rain = 0
KWOS 141925Z 06011G17KT 34/11 A3018 RMK A01 T03370110  RH  026%=      5-min Rain = 0
KWOS 141930Z 07013G19KT 34/10 A3018 RMK A01 T03400102  RH  024%=      5-min Rain = 0
KWOS 141935Z 08009G15KT 34/11 A3018 RMK A01 T03420105  RH  024%=      5-min Rain = 0
KWOS 141940Z 04011G17KT 34/11 A3017 RMK A01 T03410109  RH  025%=      5-min Rain = 0
KWOS 141945Z 07009G14KT 34/11 A3017 RMK A01 T03430107  RH  025%=      5-min Rain = 0
KWOS 141950Z 05011G19KT 34/11 A3017 RMK A01 T03410108  RH  025%=      5-min Rain = 0
KWOS 141955Z 05010G15KT 34/11 A3017 RMK A01 T03430107  RH  025%=      5-min Rain = 0
KWOS 142000Z 05012G17KT 34/11 A3017 RMK A01 T03400105  RH  025%=      5-min Rain = 0
KWOS 142005Z 06011G17KT 34/10 A3017 RMK A01 T03390104  RH  025%=      5-min Rain = 0
KWOS 142010Z 06011G19KT 34/10 A3016 RMK A01 T03420103  RH  024%=      5-min Rain = 0
KWOS 142015Z 06008KT 34/11 A3016 RMK A01 T03410106  RH  025%=      5-min Rain = 0
KWOS 142020Z 03011KT 34/11 A3015 RMK A01 T03400112  RH  026%=      5-min Rain = 0
KWOS 142025Z 03008KT 34/11 A3015 RMK A01 T03360110  RH  026%=      5-min Rain = 0
KWOS 142030Z 05009KT 34/11 A3015 RMK A01 T03380106  RH  025%=      5-min Rain = 0
KWOS 142035Z 05009KT 34/11 A3014 RMK A01 T03390112  RH  026%=      5-min Rain = 0
KWOS 142040Z 05009G14KT 34/12 A3014 RMK A01 T03400115  RH  026%=      5-min Rain = 0
KWOS 142045Z 06011G16KT 35/11 A3014 RMK A01 T03460114  RH  025%=      5-min Rain = 0
KWOS 142050Z 06009KT 34/11 A3013 RMK A01 T03430112  RH  026%=      5-min Rain = 0
KWOS 142055Z 02009G15KT 34/12 A3013 RMK A01 T03440115  RH  026%=      5-min Rain = 0
KWOS 142100Z 02009G16KT 34/11 A3013 RMK A01 T03420111  RH  025%=      5-min Rain = 0
KWOS 142105Z 03011G17KT 34/11 A3012 RMK A01 T03420109  RH  025%=      5-min Rain = 0
KWOS 142110Z 03008KT 34/11 A3012 RMK A01 T03430105  RH  024%=      5-min Rain = 0
KWOS 142115Z 00007G12KT 34/11 A3011 RMK A01 T03400112  RH  026%=      5-min Rain = 0
KWOS 142120Z 01005KT 34/11 A3011 RMK A01 T03380114  RH  027%=      5-min Rain = 0
KWOS 142125Z 07008G13KT 35/12 A3011 RMK A01 T03450116  RH  026%=      5-min Rain = 0
KWOS 142130Z 08007G14KT 34/11 A3011 RMK A01 T03440112  RH  025%=      5-min Rain = 0
KWOS 142135Z 08007G13KT 34/11 A3011 RMK A01 T03440110  RH  025%=      5-min Rain = 0
KWOS 142140Z 07009KT 35/11 A3011 RMK A01 T03450108  RH  025%=      5-min Rain = 0
KWOS 142145Z 05007G13KT 34/11 A3011 RMK A01 T03430107  RH  025%=      5-min Rain = 0
KWOS 142150Z 06008KT 34/11 A3011 RMK A01 T03420105  RH  024%=      5-min Rain = 0
KWOS 142155Z 08008G15KT 34/10 A3011 RMK A01 T03440098  RH  023%=      5-min Rain = 0
KWOS 142200Z 06007KT 34/10 A3011 RMK A01 T03430099  RH  023%=      5-min Rain = 0
KWOS 142205Z 10006G12KT 34/09 A3011 RMK A01 T03440094  RH  022%=      5-min Rain = 0
KWOS 142210Z 12004G9KT 35/09 A301 RMK A01 T03450094  RH  022%=      5-min Rain = 0
KWOS 142215Z 10007KT 35/09 A301 RMK A01 T03490094  RH  022%=      5-min Rain = 0
KWOS 142220Z 10007KT 35/09 A301 RMK A01 T03490093  RH  022%=      5-min Rain = 0
KWOS 142225Z 13005KT 35/09 A301 RMK A01 T03460092  RH  022%=      5-min Rain = 0
KWOS 142230Z 11003KT 34/09 A301 RMK A01 T03430091  RH  022%=      5-min Rain = 0
KWOS 142235Z 10003G8KT 35/09 A301 RMK A01 T03460094  RH  022%=      5-min Rain = 0
KWOS 142240Z 06007KT 35/10 A301 RMK A01 T03470096  RH  022%=      5-min Rain = 0
KWOS 142245Z 05005KT 35/09 A3009 RMK A01 T03460094  RH  022%=      5-min Rain = 0
KWOS 142250Z 01003KT 34/10 A3009 RMK A01 T03440096  RH  023%=      5-min Rain = 0
KWOS 142255Z 09005KT 35/10 A3009 RMK A01 T03460096  RH  022%=      5-min Rain = 0
KWOS 142300Z 04003KT 35/10 A3009 RMK A01 T03480103  RH  023%=      5-min Rain = 0
KWOS 142305Z 04003KT 35/10 A3009 RMK A01 T03500101  RH  023%=      5-min Rain = 0
KWOS 142310Z 08004KT 35/10 A3009 RMK A01 T03450099  RH  023%=      5-min Rain = 0
KWOS 142315Z 12004KT 35/10 A3009 RMK A01 T03470096  RH  022%=      5-min Rain = 0
KWOS 142320Z 08005G11KT 35/10 A3009 RMK A01 T03480097  RH  022%=      5-min Rain = 0
KWOS 142325Z 07008KT 35/10 A3009 RMK A01 T03470099  RH  023%=      5-min Rain = 0
KWOS 142330Z 05006KT 34/10 A3009 RMK A01 T03440100  RH  023%=      5-min Rain = 0
KWOS 142335Z 05006KT 34/10 A3009 RMK A01 T03420102  RH  024%=      5-min Rain = 0
KWOS 142340Z 05004KT 34/10 A3009 RMK A01 T03420095  RH  023%=      5-min Rain = 0
KWOS 142345Z 07007G12KT 34/10 A3009 RMK A01 T03430097  RH  023%=      5-min Rain = 0
KWOS 142350Z 09007G13KT 34/09 A3009 RMK A01 T03430093  RH  022%=      5-min Rain = 0
KWOS 142355Z 08006G12KT 34/10 A3009 RMK A01 T03420095  RH  023%=      5-min Rain = 0
KWOS 150000Z 07005KT 34/10 A3009 RMK A01 T03420103  RH  024%=      5-min Rain = 0
KWOS 150005Z 08006KT 34/10 A3009 RMK A01 T03410102  RH  024%=      5-min Rain = 0
KWOS 150010Z 10005KT 34/10 A3009 RMK A01 T03390100  RH  024%=      5-min Rain = 0
KWOS 150015Z 08004KT 34/10 A3009 RMK A01 T03390101  RH  024%=      5-min Rain = 0
KWOS 150020Z 07006KT 34/11 A3009 RMK A01 T03380105  RH  025%=      5-min Rain = 0
KWOS 150025Z 07007KT 34/11 A3009 RMK A01 T03350108  RH  026%=      5-min Rain = 0
KWOS 150030Z 08005KT 34/11 A3009 RMK A01 T03350105  RH  025%=      5-min Rain = 0
KWOS 150035Z 06008KT 33/11 A3009 RMK A01 T03340110  RH  026%=      5-min Rain = 0
KWOS 150040Z 07007KT 33/11 A3009 RMK A01 T03300111  RH  027%=      5-min Rain = 0
KWOS 150045Z 08006KT 33/11 A3009 RMK A01 T03310108  RH  026%=      5-min Rain = 0
KWOS 150050Z 08006KT 33/11 A3009 RMK A01 T03300112  RH  027%=      5-min Rain = 0
KWOS 150055Z 08007KT 33/12 A3009 RMK A01 T03280117  RH  029%=      5-min Rain = 0
KWOS 150100Z 07008KT 33/12 A301 RMK A01 T03260119  RH  029%=      5-min Rain = 0
KWOS 150105Z 08006KT 32/12 A301 RMK A01 T03230120  RH  030%=      5-min Rain = 0
KWOS 150110Z 07006KT 32/12 A301 RMK A01 T03210121  RH  031%=      5-min Rain = 0
KWOS 150115Z 07007KT 32/12 A301 RMK A01 T03180121  RH  031%=      5-min Rain = 0
KWOS 150120Z 06007KT 31/12 A301 RMK A01 T03140120  RH  032%=      5-min Rain = 0
KWOS 150125Z 07006KT 31/12 A3011 RMK A01 T03090120  RH  032%=      5-min Rain = 0
KWOS 150130Z 06005KT 31/12 A3011 RMK A01 T03050120  RH  033%=      5-min Rain = 0
KWOS 150135Z 06005KT 30/12 A3011 RMK A01 T03010121  RH  034%=      5-min Rain = 0
KWOS 150140Z 06006KT 30/12 A3011 RMK A01 T02970121  RH  035%=      5-min Rain = 0
KWOS 150145Z 06005KT 29/12 A3012 RMK A01 T02930121  RH  036%=      5-min Rain = 0
KWOS 150150Z 08004KT 29/12 A3012 RMK A01 T02880122  RH  037%=      5-min Rain = 0
KWOS 150155Z 08005KT 28/12 A3012 RMK A01 T02830123  RH  039%=      5-min Rain = 0
KWOS 150200Z 08005KT 28/13 A3012 RMK A01 T02790125  RH  040%=      5-min Rain = 0
KWOS 150205Z 08005KT 28/13 A3013 RMK A01 T02780125  RH  040%=      5-min Rain = 0
KWOS 150210Z 08006KT 28/12 A3013 RMK A01 T02750123  RH  041%=      5-min Rain = 0
KWOS 150215Z 08006KT 28/12 A3013 RMK A01 T02750124  RH  041%=      5-min Rain = 0
KWOS 150220Z 08006KT 28/12 A3013 RMK A01 T02750123  RH  041%=      5-min Rain = 0
KWOS 150225Z 09007KT 27/12 A3014 RMK A01 T02730123  RH  041%=      5-min Rain = 0
KWOS 150230Z 08006KT 27/13 A3014 RMK A01 T02710125  RH  042%=      5-min Rain = 0
KWOS 150235Z 08006KT 27/13 A3014 RMK A01 T02700126  RH  042%=      5-min Rain = 0
KWOS 150240Z 08005KT 27/13 A3014 RMK A01 T02690126  RH  043%=      5-min Rain = 0
KWOS 150245Z 08006KT 27/13 A3014 RMK A01 T02680129  RH  044%=      5-min Rain = 0
KWOS 150250Z 08007KT 27/13 A3014 RMK A01 T02690130  RH  044%=      5-min Rain = 0
KWOS 150255Z 08007KT 27/13 A3014 RMK A01 T02710131  RH  044%=      5-min Rain = 0
KWOS 150300Z 08007KT 27/13 A3015 RMK A01 T02740131  RH  043%=      5-min Rain = 0
KWOS 150305Z 08006KT 28/13 A3015 RMK A01 T02750132  RH  043%=      5-min Rain = 0
KWOS 150310Z 08006KT 27/13 A3015 RMK A01 T02720132  RH  044%=      5-min Rain = 0
KWOS 150315Z 08007KT 27/13 A3015 RMK A01 T02690133  RH  045%=      5-min Rain = 0
KWOS 150320Z 08007KT 27/13 A3016 RMK A01 T02680134  RH  045%=      5-min Rain = 0
KWOS 150325Z 09007KT 27/13 A3016 RMK A01 T02670133  RH  045%=      5-min Rain = 0
KWOS 150330Z 09007KT 27/13 A3016 RMK A01 T02680133  RH  045%=      5-min Rain = 0
KWOS 150335Z 08006KT 27/13 A3016 RMK A01 T02650132  RH  046%=      5-min Rain = 0
KWOS 150340Z 08006KT 26/13 A3016 RMK A01 T02630133  RH  046%=      5-min Rain = 0
KWOS 150345Z 09006KT 26/13 A3016 RMK A01 T02620133  RH  047%=      5-min Rain = 0
KWOS 150350Z 09007KT 26/13 A3016 RMK A01 T02620133  RH  047%=      5-min Rain = 0
KWOS 150355Z 10007KT 27/13 A3017 RMK A01 T02650134  RH  046%=      5-min Rain = 0
KWOS 150400Z 10007KT 26/14 A3017 RMK A01 T02640136  RH  047%=      5-min Rain = 0
KWOS 150405Z 10007KT 26/14 A3017 RMK A01 T02620138  RH  048%=      5-min Rain = 0
KWOS 150410Z 10007KT 26/14 A3017 RMK A01 T02590138  RH  049%=      5-min Rain = 0
KWOS 150415Z 10006KT 26/14 A3018 RMK A01 T02580138  RH  050%=      5-min Rain = 0
KWOS 150420Z 11006KT 26/14 A3017 RMK A01 T02560138  RH  050%=      5-min Rain = 0
KWOS 150425Z 11006KT 25/14 A3017 RMK A01 T02540139  RH  051%=      5-min Rain = 0
KWOS 150430Z 11006KT 25/14 A3017 RMK A01 T02530140  RH  051%=      5-min Rain = 0
KWOS 150435Z 11007KT 26/14 A3017 RMK A01 T02550142  RH  052%=      5-min Rain = 0
KWOS 150440Z 10006KT 26/14 A3017 RMK A01 T02570143  RH  052%=      5-min Rain = 0
KWOS 150445Z 10006KT 26/14 A3017 RMK A01 T02570144  RH  052%=      5-min Rain = 0
KWOS 150450Z 10006KT 26/15 A3017 RMK A01 T02560145  RH  052%=      5-min Rain = 0
KWOS 150455Z 10006KT 26/15 A3017 RMK A01 T02560146  RH  053%=      5-min Rain = 0

Page generated in 0.009 seconds.